createdAt,value
2023-05-22T00:00:21.958Z,0
2023-05-22T00:01:20.568Z,0
2023-05-22T00:02:27.992Z,0
2023-05-22T00:03:20.962Z,0
2023-05-22T00:04:54.849Z,0
2023-05-22T00:05:50.014Z,0
2023-05-22T00:06:30.951Z,0
2023-05-22T00:07:22.871Z,0
2023-05-22T00:08:22.093Z,0
2023-05-22T00:09:30.196Z,0
2023-05-22T00:10:23.720Z,0
2023-05-22T00:11:23.297Z,0
2023-05-22T00:12:53.463Z,0
2023-05-22T00:13:25.155Z,0
2023-05-22T00:14:26.544Z,0
2023-05-22T00:15:47.081Z,0
2023-05-22T00:16:34.937Z,0
2023-05-22T00:17:28.157Z,0
2023-05-22T00:19:09.418Z,0
2023-05-22T00:20:45.392Z,0
2023-05-22T00:21:30.435Z,0
2023-05-22T00:22:48.263Z,0
2023-05-22T00:23:40.188Z,0
2023-05-22T00:24:20.305Z,0
2023-05-22T00:25:25.436Z,0
2023-05-22T00:26:32.929Z,0
2023-05-22T00:28:07.507Z,0
2023-05-22T00:28:31.827Z,0
2023-05-22T00:29:37.594Z,0
2023-05-22T00:30:25.791Z,0
2023-05-22T00:31:43.580Z,0
2023-05-22T00:32:24.815Z,0
2023-05-22T00:33:22.477Z,0
2023-05-22T00:34:29.129Z,0
2023-05-22T00:35:37.114Z,0
2023-05-22T00:36:23.935Z,0
2023-05-22T00:37:49.183Z,0
2023-05-22T00:38:46.019Z,0
2023-05-22T00:39:36.184Z,0
2023-05-22T00:40:26.556Z,0
2023-05-22T00:41:21.219Z,0
2023-05-22T00:42:38.108Z,0
2023-05-22T00:43:49.961Z,0
2023-05-22T00:44:32.306Z,0
2023-05-22T00:45:47.952Z,0
2023-05-22T00:46:39.181Z,0
2023-05-22T00:48:23.856Z,0
2023-05-22T00:49:41.958Z,0
2023-05-22T00:51:06.919Z,0
2023-05-22T00:51:57.420Z,0
2023-05-22T00:52:42.566Z,0
2023-05-22T00:53:24.556Z,0
2023-05-22T00:54:24.618Z,0
2023-05-22T00:55:27.717Z,0
2023-05-22T00:56:20.805Z,0
2023-05-22T00:57:21.021Z,0
2023-05-22T00:58:24.386Z,0
2023-05-22T00:59:38.712Z,0
2023-05-22T01:00:48.178Z,0
2023-05-22T01:01:42.713Z,0
2023-05-22T01:02:34.022Z,0
2023-05-22T01:03:23.408Z,0
2023-05-22T01:14:07.273Z,0
2023-05-22T01:14:48.723Z,0
2023-05-22T01:15:27.924Z,0
2023-05-22T01:23:22.401Z,0
2023-05-22T01:24:36.511Z,0
2023-05-22T01:25:27.449Z,0
2023-05-22T01:26:21.508Z,0
2023-05-22T01:27:37.082Z,0
2023-05-22T01:28:50.567Z,0
2023-05-22T01:29:39.664Z,0
2023-05-22T01:30:24.707Z,0
2023-05-22T01:31:39.294Z,0
2023-05-22T01:32:32.538Z,0
2023-05-22T01:33:25.767Z,0
2023-05-22T01:34:21.664Z,0
2023-05-22T01:35:56.426Z,0
2023-05-22T01:36:35.042Z,0
2023-05-22T01:37:20.299Z,0
2023-05-22T01:38:26.625Z,0
2023-05-22T01:39:21.105Z,0
2023-05-22T01:40:28.831Z,0
2023-05-22T01:41:26.710Z,0
2023-05-22T01:43:26.749Z,0
2023-05-22T01:44:31.493Z,0
2023-05-22T01:45:48.109Z,0
2023-05-22T01:46:22.236Z,0
2023-05-22T01:47:34.565Z,0
2023-05-22T01:48:25.551Z,0
2023-05-22T01:49:22.930Z,0
2023-05-22T01:50:44.465Z,0
2023-05-22T01:51:35.945Z,0
2023-05-22T01:52:23.206Z,0
2023-05-22T01:53:45.624Z,0
2023-05-22T01:54:22.306Z,0
2023-05-22T01:55:32.589Z,0
2023-05-22T01:56:22.942Z,0
2023-05-22T01:57:21.512Z,0
2023-05-22T01:58:39.238Z,0
2023-05-22T01:59:23.859Z,0
2023-05-22T02:00:20.952Z,0
2023-05-22T02:01:46.687Z,0
2023-05-22T02:02:28.784Z,0
2023-05-22T02:03:26.814Z,0
2023-05-22T02:04:23.697Z,0
2023-05-22T02:05:30.661Z,0
2023-05-22T02:06:26.956Z,0
2023-05-22T02:07:46.799Z,0
2023-05-22T02:08:44.208Z,0
2023-05-22T02:09:38.971Z,0
2023-05-22T02:10:21.451Z,0
2023-05-22T02:11:25.986Z,0
2023-05-22T02:12:20.788Z,0
2023-05-22T02:13:29.896Z,0
2023-05-22T02:14:35.991Z,0
2023-05-22T02:15:55.599Z,0
2023-05-22T02:16:29.111Z,0
2023-05-22T02:17:26.394Z,0
2023-05-22T02:18:29.093Z,0
2023-05-22T02:19:20.258Z,0
2023-05-22T02:20:25.650Z,0
2023-05-22T02:21:50.280Z,0
2023-05-22T02:22:22.366Z,0
2023-05-22T02:23:28.324Z,0
2023-05-22T02:24:29.077Z,0
2023-05-22T02:25:32.970Z,0
2023-05-22T02:26:25.475Z,0
2023-05-22T02:27:21.985Z,0
2023-05-22T02:28:22.929Z,0
2023-05-22T02:29:39.329Z,0
2023-05-22T02:30:27.228Z,0
2023-05-22T02:31:24.934Z,0
2023-05-22T02:32:36.649Z,0
2023-05-22T02:33:28.908Z,0
2023-05-22T02:34:21.425Z,0
2023-05-22T02:35:25.997Z,0
2023-05-22T02:36:32.850Z,0
2023-05-22T02:37:27.062Z,0
2023-05-22T02:38:35.777Z,0
2023-05-22T02:39:23.587Z,0
2023-05-22T02:40:29.109Z,0
2023-05-22T02:41:31.883Z,0
2023-05-22T02:42:23.693Z,0
2023-05-22T02:43:30.747Z,0
2023-05-22T02:44:26.990Z,0
2023-05-22T02:45:24.995Z,0
2023-05-22T02:46:23.940Z,0
2023-05-22T02:47:30.730Z,0
2023-05-22T02:48:26.021Z,0
2023-05-22T02:49:24.128Z,0
2023-05-22T02:50:20.860Z,0
2023-05-22T02:51:35.297Z,0
2023-05-22T02:52:41.874Z,0
2023-05-22T02:53:33.439Z,0
2023-05-22T02:54:30.277Z,0
2023-05-22T02:55:25.651Z,0
2023-05-22T02:56:27.043Z,0
2023-05-22T02:57:23.371Z,0
2023-05-22T02:58:52.724Z,0
2023-05-22T02:59:24.470Z,0
2023-05-22T03:00:31.487Z,0
2023-05-22T03:01:44.088Z,0
2023-05-22T03:02:27.037Z,0
2023-05-22T03:03:31.625Z,0
2023-05-22T03:04:25.028Z,0
2023-05-22T03:05:22.096Z,0
2023-05-22T03:06:22.914Z,0
2023-05-22T03:07:23.712Z,0
2023-05-22T03:08:19.772Z,0
2023-05-22T03:09:25.061Z,0
2023-05-22T03:10:37.237Z,0
2023-05-22T03:11:29.812Z,0
2023-05-22T03:12:20.456Z,0
2023-05-22T03:13:28.800Z,0
2023-05-22T03:14:35.744Z,0
2023-05-22T03:15:24.878Z,0
2023-05-22T03:16:27.083Z,0
2023-05-22T03:17:37.281Z,0
2023-05-22T03:18:37.624Z,0
2023-05-22T03:19:24.185Z,0
2023-05-22T03:20:23.440Z,0
2023-05-22T03:21:38.784Z,0
2023-05-22T03:22:26.542Z,0
2023-05-22T03:23:51.095Z,0
2023-05-22T03:24:25.968Z,0
2023-05-22T03:25:36.887Z,0
2023-05-22T03:26:27.976Z,0
2023-05-22T03:27:21.206Z,0
2023-05-22T03:28:20.957Z,0
2023-05-22T03:29:29.224Z,0
2023-05-22T03:30:28.926Z,0
2023-05-22T03:31:36.335Z,-0
2023-05-22T03:32:32.436Z,-0
2023-05-22T03:33:28.383Z,-0
2023-05-22T03:34:25.351Z,0
2023-05-22T03:35:21.571Z,0
2023-05-22T03:36:34.411Z,0
2023-05-22T03:37:48.438Z,0
2023-05-22T03:38:54.363Z,0
2023-05-22T03:39:41.467Z,0
2023-05-22T03:40:28.543Z,-0
2023-05-22T03:41:29.499Z,0
2023-05-22T03:42:22.651Z,0
2023-05-22T03:43:22.168Z,0
2023-05-22T03:44:22.103Z,0
2023-05-22T03:45:56.388Z,0
2023-05-22T03:46:48.684Z,0
2023-05-22T03:47:32.629Z,0
2023-05-22T03:48:23.157Z,0
2023-05-22T03:49:25.754Z,0
2023-05-22T03:50:27.861Z,0
2023-05-22T03:51:24.977Z,0
2023-05-22T03:52:23.619Z,0
2023-05-22T03:53:32.697Z,0
2023-05-22T03:54:32.899Z,0
2023-05-22T03:55:21.698Z,0
2023-05-22T03:56:30.181Z,0
2023-05-22T03:57:25.419Z,0
2023-05-22T03:58:23.421Z,0
2023-05-22T03:59:43.889Z,0
2023-05-22T04:00:50.926Z,0
2023-05-22T04:01:30.391Z,0
2023-05-22T04:02:23.057Z,0
2023-05-22T04:03:22.567Z,0
2023-05-22T04:04:28.924Z,0
2023-05-22T04:05:20.406Z,0
2023-05-22T04:06:20.606Z,0
2023-05-22T04:07:53.021Z,0
2023-05-22T04:08:40.669Z,0
2023-05-22T04:09:26.993Z,0
2023-05-22T04:10:33.195Z,0
2023-05-22T04:11:34.712Z,0
2023-05-22T04:12:26.001Z,0
2023-05-22T04:13:21.660Z,0
2023-05-22T04:14:56.785Z,0
2023-05-22T04:15:31.072Z,0
2023-05-22T04:16:30.046Z,0
2023-05-22T04:17:44.193Z,0
2023-05-22T04:18:36.108Z,0
2023-05-22T04:19:28.212Z,0
2023-05-22T04:20:25.213Z,0
2023-05-22T04:21:22.279Z,0
2023-05-22T04:22:49.783Z,0
2023-05-22T04:23:34.646Z,0
2023-05-22T04:24:46.297Z,0
2023-05-22T04:25:41.168Z,0
2023-05-22T04:26:28.220Z,0
2023-05-22T04:27:28.104Z,0
2023-05-22T04:28:26.440Z,0
2023-05-22T04:29:49.324Z,0
2023-05-22T04:30:59.217Z,0
2023-05-22T04:31:34.419Z,0
2023-05-22T04:32:31.989Z,0
2023-05-22T04:33:38.867Z,0
2023-05-22T04:34:32.213Z,0
2023-05-22T04:35:22.250Z,0
2023-05-22T04:36:23.512Z,0
2023-05-22T04:37:25.414Z,1
2023-05-22T04:38:25.831Z,1
2023-05-22T04:39:48.342Z,1
2023-05-22T04:40:42.566Z,1
2023-05-22T04:41:47.043Z,1
2023-05-22T04:42:20.766Z,1
2023-05-22T04:43:28.811Z,1
2023-05-22T04:44:20.674Z,1
2023-05-22T04:45:29.781Z,1
2023-05-22T04:46:30.600Z,1
2023-05-22T04:47:46.731Z,1
2023-05-22T04:48:38.455Z,1
2023-05-22T04:49:24.649Z,1
2023-05-22T04:50:23.390Z,1
2023-05-22T04:51:26.562Z,1
2023-05-22T04:52:34.484Z,1
2023-05-22T04:53:28.982Z,1
2023-05-22T04:54:27.710Z,1
2023-05-22T04:55:42.765Z,1
2023-05-22T04:56:36.025Z,1
2023-05-22T04:57:27.050Z,1
2023-05-22T04:58:20.019Z,1
2023-05-22T04:59:22.337Z,1
2023-05-22T05:00:21.990Z,1
2023-05-22T05:01:47.142Z,1
2023-05-22T05:02:43.939Z,1
2023-05-22T05:03:28.791Z,1
2023-05-22T05:04:31.213Z,1
2023-05-22T05:05:25.867Z,1
2023-05-22T05:06:25.993Z,2
2023-05-22T05:07:24.116Z,2
2023-05-22T05:09:00.162Z,2
2023-05-22T05:09:46.902Z,2
2023-05-22T05:10:33.902Z,2
2023-05-22T05:11:27.962Z,2
2023-05-22T05:12:23.149Z,2
2023-05-22T05:13:21.242Z,2
2023-05-22T05:14:23.426Z,2
2023-05-22T05:15:25.031Z,2
2023-05-22T05:16:21.717Z,2
2023-05-22T05:17:36.965Z,2
2023-05-22T05:18:24.343Z,2
2023-05-22T05:19:23.783Z,2
2023-05-22T05:20:27.842Z,2
2023-05-22T05:21:30.664Z,2
2023-05-22T05:22:21.456Z,2
2023-05-22T05:23:20.988Z,2
2023-05-22T05:24:31.307Z,2
2023-05-22T05:25:29.095Z,2
2023-05-22T05:26:23.725Z,2
2023-05-22T05:27:28.992Z,2
2023-05-22T05:28:22.515Z,2
2023-05-22T05:29:20.263Z,2
2023-05-22T05:30:21.381Z,2
2023-05-22T05:31:32.707Z,2
2023-05-22T05:32:27.822Z,2
2023-05-22T05:33:25.951Z,2
2023-05-22T05:34:36.416Z,2
2023-05-22T05:35:26.034Z,2
2023-05-22T05:36:25.259Z,2
2023-05-22T05:37:22.528Z,2
2023-05-22T05:38:31.271Z,2
2023-05-22T05:39:27.375Z,2
2023-05-22T05:40:23.407Z,2
2023-05-22T05:41:33.450Z,2
2023-05-22T05:42:32.335Z,2
2023-05-22T05:43:25.844Z,2
2023-05-22T05:44:26.292Z,2
2023-05-22T05:45:31.649Z,2
2023-05-22T05:46:26.894Z,2
2023-05-22T05:47:23.414Z,2
2023-05-22T05:48:33.934Z,2
2023-05-22T05:49:30.875Z,2
2023-05-22T05:50:27.540Z,2
2023-05-22T05:51:21.425Z,3
2023-05-22T05:52:24.406Z,3
2023-05-22T05:53:27.195Z,3
2023-05-22T05:54:23.956Z,3
2023-05-22T05:55:34.509Z,3
2023-05-22T05:56:30.664Z,3
2023-05-22T05:57:25.278Z,3
2023-05-22T05:58:25.935Z,3
2023-05-22T05:59:29.034Z,3
2023-05-22T06:00:20.446Z,3
2023-05-22T06:01:23.245Z,3
2023-05-22T06:02:36.023Z,3
2023-05-22T06:03:29.020Z,3
2023-05-22T06:04:27.596Z,4
2023-05-22T06:05:22.778Z,4
2023-05-22T06:06:21.765Z,4
2023-05-22T06:07:28.967Z,4
2023-05-22T06:08:23.233Z,4
2023-05-22T06:09:33.339Z,5
2023-05-22T06:10:30.298Z,6
2023-05-22T06:11:25.166Z,7
2023-05-22T06:12:26.274Z,8
2023-05-22T06:13:24.932Z,8
2023-05-22T06:14:29.066Z,9
2023-05-22T06:15:25.101Z,9
2023-05-22T06:16:20.323Z,10
2023-05-22T06:17:29.654Z,10
2023-05-22T06:18:26.158Z,10
2023-05-22T06:19:21.201Z,10
2023-05-22T06:20:33.400Z,9
2023-05-22T06:21:22.157Z,7
2023-05-22T06:22:23.765Z,7
2023-05-22T06:23:25.078Z,6
2023-05-22T06:24:29.414Z,6
2023-05-22T06:25:26.556Z,5
2023-05-22T06:26:21.155Z,5
2023-05-22T06:27:33.452Z,5
2023-05-22T06:28:27.569Z,5
2023-05-22T06:29:21.611Z,5
2023-05-22T06:30:39.054Z,5
2023-05-22T06:31:29.398Z,6
2023-05-22T06:32:26.666Z,6
2023-05-22T06:33:21.196Z,7
2023-05-22T06:34:20.933Z,6
2023-05-22T06:35:31.726Z,6
2023-05-22T06:36:22.904Z,7
2023-05-22T06:37:28.980Z,6
2023-05-22T06:38:21.640Z,6
2023-05-22T06:39:25.407Z,6
2023-05-22T06:40:22.775Z,6
2023-05-22T06:41:25.728Z,6
2023-05-22T06:42:27.388Z,6
2023-05-22T06:43:23.520Z,6
2023-05-22T06:44:22.509Z,7
2023-05-22T06:45:26.176Z,7
2023-05-22T06:46:25.071Z,7
2023-05-22T06:47:21.583Z,7
2023-05-22T06:48:27.262Z,8
2023-05-22T06:49:29.372Z,8
2023-05-22T06:50:23.441Z,8
2023-05-22T06:51:24.455Z,9
2023-05-22T06:52:22.377Z,9
2023-05-22T06:53:22.210Z,9
2023-05-22T06:54:21.500Z,9
2023-05-22T06:55:33.191Z,9
2023-05-22T06:56:28.234Z,9
2023-05-22T06:57:23.567Z,9
2023-05-22T06:58:30.280Z,9
2023-05-22T06:59:21.430Z,10
2023-05-22T07:00:26.642Z,10
2023-05-22T07:01:21.406Z,10
2023-05-22T07:02:33.246Z,10
2023-05-22T07:03:21.463Z,10
2023-05-22T07:04:23.910Z,11
2023-05-22T07:05:33.023Z,11
2023-05-22T07:06:26.485Z,11
2023-05-22T07:07:25.193Z,11
2023-05-22T07:08:23.484Z,11
2023-05-22T07:09:31.086Z,11
2023-05-22T07:10:22.933Z,11
2023-05-22T07:11:24.629Z,11
2023-05-22T07:12:37.694Z,10
2023-05-22T07:13:31.646Z,10
2023-05-22T07:14:23.821Z,10
2023-05-22T07:15:21.299Z,10
2023-05-22T07:16:21.286Z,10
2023-05-22T07:17:29.002Z,10
2023-05-22T07:18:23.265Z,10
2023-05-22T07:19:33.812Z,9
2023-05-22T07:20:27.173Z,9
2023-05-22T07:21:26.110Z,8
2023-05-22T07:22:23.164Z,8
2023-05-22T07:23:26.460Z,8
2023-05-22T07:24:27.008Z,8
2023-05-22T07:25:23.125Z,9
2023-05-22T07:26:33.966Z,10
2023-05-22T07:27:30.203Z,9
2023-05-22T07:28:26.380Z,9
2023-05-22T07:29:23.443Z,8
2023-05-22T07:30:31.503Z,8
2023-05-22T07:31:23.620Z,9
2023-05-22T07:32:23.134Z,9
2023-05-22T07:33:33.558Z,11
2023-05-22T07:34:30.704Z,12
2023-05-22T07:35:25.623Z,15
2023-05-22T07:36:22.435Z,18
2023-05-22T07:37:19.900Z,19
2023-05-22T07:38:27.498Z,21
2023-05-22T07:39:23.131Z,21
2023-05-22T07:40:33.472Z,21
2023-05-22T07:41:31.740Z,22
2023-05-22T07:42:19.729Z,22
2023-05-22T07:43:21.061Z,22
2023-05-22T07:44:24.035Z,23
2023-05-22T07:45:31.813Z,23
2023-05-22T07:46:25.190Z,23
2023-05-22T07:47:35.284Z,23
2023-05-22T07:48:24.676Z,23
2023-05-22T07:49:27.424Z,23
2023-05-22T07:50:21.543Z,24
2023-05-22T07:51:29.543Z,24
2023-05-22T07:52:21.063Z,24
2023-05-22T07:53:24.102Z,25
2023-05-22T07:54:21.517Z,25
2023-05-22T07:55:29.704Z,24
2023-05-22T07:56:27.761Z,25
2023-05-22T07:57:23.735Z,26
2023-05-22T07:58:32.296Z,26
2023-05-22T07:59:23.004Z,27
2023-05-22T08:00:23.563Z,28
2023-05-22T08:01:24.699Z,26
2023-05-22T08:02:29.485Z,26
2023-05-22T08:03:28.072Z,27
2023-05-22T08:04:22.237Z,17
2023-05-22T08:05:26.386Z,11
2023-05-22T08:06:30.376Z,12
2023-05-22T08:07:23.279Z,17
2023-05-22T08:08:31.960Z,28
2023-05-22T08:09:21.950Z,18
2023-05-22T08:10:26.406Z,16
2023-05-22T08:11:21.351Z,26
2023-05-22T08:12:31.071Z,30
2023-05-22T08:13:27.150Z,19
2023-05-22T08:14:27.887Z,21
2023-05-22T08:15:32.975Z,14
2023-05-22T08:16:27.244Z,9
2023-05-22T08:17:25.320Z,15
2023-05-22T08:18:21.305Z,29
2023-05-22T08:19:32.297Z,30
2023-05-22T08:20:27.429Z,30
2023-05-22T08:21:23.290Z,30
2023-05-22T08:22:24.752Z,29
2023-05-22T08:23:30.044Z,30
2023-05-22T08:24:26.752Z,30
2023-05-22T08:25:21.378Z,31
2023-05-22T08:26:22.088Z,31
2023-05-22T08:27:22.352Z,31
2023-05-22T08:28:24.004Z,32
2023-05-22T08:29:27.255Z,30
2023-05-22T08:30:22.736Z,30
2023-05-22T08:31:27.275Z,23
2023-05-22T08:32:21.285Z,19
2023-05-22T08:33:27.385Z,35
2023-05-22T08:34:27.090Z,34
2023-05-22T08:35:24.564Z,34
2023-05-22T08:36:33.461Z,35
2023-05-22T08:37:25.773Z,35
2023-05-22T08:38:25.207Z,35
2023-05-22T08:39:21.146Z,37
2023-05-22T08:40:27.691Z,38
2023-05-22T08:41:29.035Z,33
2023-05-22T08:42:23.070Z,15
2023-05-22T08:43:34.967Z,16
2023-05-22T08:44:24.265Z,19
2023-05-22T08:45:20.852Z,16
2023-05-22T08:46:21.139Z,13
2023-05-22T08:47:22.025Z,11
2023-05-22T08:48:28.167Z,9
2023-05-22T08:49:23.943Z,8
2023-05-22T08:50:28.307Z,9
2023-05-22T08:51:27.999Z,10
2023-05-22T08:52:25.568Z,10
2023-05-22T08:53:22.524Z,11
2023-05-22T08:54:26.173Z,12
2023-05-22T08:55:20.529Z,12
2023-05-22T08:56:26.688Z,12
2023-05-22T08:57:34.608Z,14
2023-05-22T08:58:29.548Z,13
2023-05-22T08:59:26.738Z,13
2023-05-22T09:00:22.852Z,13
2023-05-22T09:01:24.556Z,15
2023-05-22T09:02:23.530Z,17
2023-05-22T09:03:23.595Z,20
2023-05-22T09:04:34.322Z,19
2023-05-22T09:05:29.333Z,22
2023-05-22T09:06:25.918Z,18
2023-05-22T09:07:23.565Z,22
2023-05-22T09:08:32.688Z,18
2023-05-22T09:09:41.602Z,14
2023-05-22T09:10:20.528Z,13
2023-05-22T09:11:33.164Z,24
2023-05-22T09:12:23.009Z,31
2023-05-22T09:13:22.268Z,36
2023-05-22T09:14:23.291Z,33
2023-05-22T09:15:22.791Z,30
2023-05-22T09:16:27.260Z,38
2023-05-22T09:17:24.641Z,31
2023-05-22T09:18:26.301Z,38
2023-05-22T09:19:30.918Z,18
2023-05-22T09:20:25.410Z,39
2023-05-22T09:21:33.780Z,17
2023-05-22T09:22:27.540Z,12
2023-05-22T09:23:19.834Z,13
2023-05-22T09:24:23.431Z,38
2023-05-22T09:25:33.020Z,40
2023-05-22T09:26:31.189Z,40
2023-05-22T09:27:28.654Z,20
2023-05-22T09:28:21.854Z,16
2023-05-22T09:29:24.902Z,30
2023-05-22T09:30:24.207Z,41
2023-05-22T09:31:23.371Z,31
2023-05-22T09:32:27.628Z,14
2023-05-22T09:33:29.951Z,30
2023-05-22T09:34:25.154Z,12
2023-05-22T09:35:22.568Z,11
2023-05-22T09:36:33.469Z,12
2023-05-22T09:37:28.964Z,13
2023-05-22T09:38:27.943Z,42
2023-05-22T09:39:29.809Z,44
2023-05-22T09:40:24.095Z,44
2023-05-22T09:41:25.225Z,44
2023-05-22T09:42:21.243Z,44
2023-05-22T09:43:32.215Z,42
2023-05-22T09:44:27.150Z,43
2023-05-22T09:45:24.810Z,42
2023-05-22T09:46:26.831Z,44
2023-05-22T09:47:29.775Z,43
2023-05-22T09:48:20.354Z,16
2023-05-22T09:49:21.331Z,25
2023-05-22T09:50:32.262Z,43
2023-05-22T09:51:27.571Z,39
2023-05-22T09:52:24.564Z,45
2023-05-22T09:53:22.650Z,45
2023-05-22T09:54:31.525Z,35
2023-05-22T09:55:25.550Z,27
2023-05-22T09:56:27.502Z,40
2023-05-22T09:57:24.154Z,45
2023-05-22T09:58:27.666Z,45
2023-05-22T09:59:23.764Z,46
2023-05-22T10:00:27.796Z,46
2023-05-22T10:01:29.491Z,46
2023-05-22T10:02:25.559Z,46
2023-05-22T10:03:22.196Z,45
2023-05-22T10:04:33.167Z,45
2023-05-22T10:05:27.648Z,19
2023-05-22T10:06:25.477Z,25
2023-05-22T10:07:31.475Z,43
2023-05-22T10:08:23.063Z,44
2023-05-22T10:09:25.606Z,45
2023-05-22T10:10:22.425Z,45
2023-05-22T10:11:31.267Z,24
2023-05-22T10:12:29.317Z,21
2023-05-22T10:13:24.155Z,32
2023-05-22T10:14:24.978Z,47
2023-05-22T10:15:31.468Z,49
2023-05-22T10:16:20.256Z,39
2023-05-22T10:17:22.881Z,27
2023-05-22T10:18:31.349Z,43
2023-05-22T10:19:27.541Z,43
2023-05-22T10:20:25.427Z,49
2023-05-22T10:21:34.452Z,27
2023-05-22T10:22:30.894Z,44
2023-05-22T10:23:26.880Z,24
2023-05-22T10:24:21.529Z,28
2023-05-22T10:25:21.233Z,46
2023-05-22T10:26:21.203Z,47
2023-05-22T10:27:23.408Z,47
2023-05-22T10:28:33.902Z,46
2023-05-22T10:29:30.144Z,45
2023-05-22T10:30:27.926Z,39
2023-05-22T10:31:22.978Z,50
2023-05-22T10:32:41.502Z,51
2023-05-22T10:33:24.211Z,28
2023-05-22T10:34:24.536Z,13
2023-05-22T10:35:33.298Z,11
2023-05-22T10:36:29.945Z,10
2023-05-22T10:37:25.519Z,46
2023-05-22T10:38:21.342Z,47
2023-05-22T10:39:31.107Z,47
2023-05-22T10:40:28.789Z,48
2023-05-22T10:41:23.443Z,48
2023-05-22T10:42:23.210Z,26
2023-05-22T10:43:29.121Z,22
2023-05-22T10:44:27.143Z,24
2023-05-22T10:45:21.336Z,50
2023-05-22T10:46:23.453Z,49
2023-05-22T10:47:28.045Z,45
2023-05-22T10:48:28.514Z,46
2023-05-22T10:49:35.013Z,30
2023-05-22T10:50:30.583Z,11
2023-05-22T10:51:26.324Z,11
2023-05-22T10:52:21.317Z,12
2023-05-22T10:53:21.642Z,32
2023-05-22T10:54:27.453Z,37
2023-05-22T10:55:23.211Z,18
2023-05-22T10:56:25.759Z,35
2023-05-22T10:57:29.673Z,53
2023-05-22T10:58:25.112Z,23
2023-05-22T10:59:22.667Z,44
2023-05-22T11:00:31.594Z,47
2023-05-22T11:01:23.373Z,45
2023-05-22T11:02:25.591Z,51
2023-05-22T11:03:27.448Z,50
2023-05-22T11:04:22.223Z,51
2023-05-22T11:05:25.857Z,52
2023-05-22T11:06:21.196Z,53
2023-05-22T11:07:34.815Z,54
2023-05-22T11:08:29.813Z,52
2023-05-22T11:09:20.176Z,29
2023-05-22T11:10:24.459Z,14
2023-05-22T11:11:25.036Z,17
2023-05-22T11:12:25.601Z,15
2023-05-22T11:13:22.905Z,16
2023-05-22T11:14:34.068Z,51
2023-05-22T11:15:27.571Z,49
2023-05-22T11:16:25.527Z,50
2023-05-22T11:17:36.380Z,50
2023-05-22T11:18:30.306Z,51
2023-05-22T11:19:24.106Z,51
2023-05-22T11:20:21.591Z,50
2023-05-22T11:21:31.386Z,21
2023-05-22T11:22:27.510Z,47
2023-05-22T11:23:24.068Z,53
2023-05-22T11:24:20.731Z,50
2023-05-22T11:25:29.429Z,26
2023-05-22T11:26:28.309Z,16
2023-05-22T11:27:24.173Z,14
2023-05-22T11:28:38.710Z,24
2023-05-22T11:29:27.343Z,13
2023-05-22T11:30:24.921Z,12
2023-05-22T11:31:25.322Z,14
2023-05-22T11:32:29.516Z,43
2023-05-22T11:33:26.567Z,52
2023-05-22T11:34:23.110Z,52
2023-05-22T11:35:31.268Z,54
2023-05-22T11:36:29.938Z,40
2023-05-22T11:37:23.832Z,18
2023-05-22T11:38:22.470Z,15
2023-05-22T11:39:21.898Z,14
2023-05-22T11:40:25.338Z,13
2023-05-22T11:41:23.616Z,13
2023-05-22T11:42:20.256Z,18
2023-05-22T11:43:28.358Z,17
2023-05-22T11:44:26.216Z,29
2023-05-22T11:45:22.041Z,52
2023-05-22T11:46:27.953Z,53
2023-05-22T11:47:25.329Z,53
2023-05-22T11:48:21.536Z,53
2023-05-22T11:49:25.390Z,53
2023-05-22T11:50:41.144Z,53
2023-05-22T11:51:23.485Z,33
2023-05-22T11:52:33.661Z,15
2023-05-22T11:53:29.850Z,14
2023-05-22T11:54:28.868Z,18
2023-05-22T11:55:22.904Z,47
2023-05-22T11:56:29.697Z,53
2023-05-22T11:57:21.471Z,41
2023-05-22T11:58:23.319Z,12
2023-05-22T11:59:34.038Z,11
2023-05-22T12:00:29.149Z,11
2023-05-22T12:01:28.381Z,13
2023-05-22T12:02:22.793Z,45
2023-05-22T12:03:32.777Z,48
2023-05-22T12:04:28.988Z,37
2023-05-22T12:05:23.380Z,14
2023-05-22T12:06:20.245Z,13
2023-05-22T12:07:31.916Z,11
2023-05-22T12:08:25.333Z,11
2023-05-22T12:09:25.855Z,17
2023-05-22T12:10:24.144Z,10
2023-05-22T12:11:29.695Z,10
2023-05-22T12:12:25.276Z,11
2023-05-22T12:13:34.381Z,11
2023-05-22T12:14:29.528Z,12
2023-05-22T12:15:26.932Z,28
2023-05-22T12:16:21.247Z,54
2023-05-22T12:17:23.439Z,47
2023-05-22T12:18:31.349Z,14
2023-05-22T12:19:23.133Z,13
2023-05-22T12:20:21.825Z,13
2023-05-22T12:21:22.878Z,13
2023-05-22T12:22:26.514Z,53
2023-05-22T12:23:24.289Z,52
2023-05-22T12:24:26.538Z,53
2023-05-22T12:25:27.577Z,55
2023-05-22T12:26:23.643Z,45
2023-05-22T12:27:26.609Z,24
2023-05-22T12:28:31.075Z,19
2023-05-22T12:29:27.091Z,15
2023-05-22T12:30:23.398Z,14
2023-05-22T12:31:33.645Z,13
2023-05-22T12:32:21.882Z,12
2023-05-22T12:33:23.597Z,12
2023-05-22T12:34:28.756Z,12
2023-05-22T12:35:21.529Z,12
2023-05-22T12:36:27.440Z,12
2023-05-22T12:37:22.319Z,12
2023-05-22T12:38:35.272Z,12
2023-05-22T12:39:28.948Z,21
2023-05-22T12:40:26.136Z,30
2023-05-22T12:41:33.235Z,17
2023-05-22T12:42:25.817Z,18
2023-05-22T12:43:27.420Z,53
2023-05-22T12:44:21.558Z,47
2023-05-22T12:45:31.738Z,16
2023-05-22T12:46:30.074Z,16
2023-05-22T12:47:23.653Z,17
2023-05-22T12:48:33.229Z,16
2023-05-22T12:49:31.804Z,17
2023-05-22T12:50:26.140Z,34
2023-05-22T12:51:21.512Z,49
2023-05-22T12:52:36.412Z,52
2023-05-22T12:53:28.032Z,51
2023-05-22T12:54:25.454Z,50
2023-05-22T12:55:20.020Z,49
2023-05-22T12:56:29.343Z,48
2023-05-22T12:57:26.850Z,48
2023-05-22T12:58:23.067Z,48
2023-05-22T12:59:32.937Z,48
2023-05-22T13:00:27.306Z,48
2023-05-22T13:01:24.982Z,48
2023-05-22T13:02:25.776Z,48
2023-05-22T13:03:31.902Z,45
2023-05-22T13:04:26.164Z,49
2023-05-22T13:05:25.188Z,42
2023-05-22T13:06:33.688Z,50
2023-05-22T13:07:27.488Z,35
2023-05-22T13:08:24.640Z,13
2023-05-22T13:09:29.085Z,12
2023-05-22T13:10:21.477Z,12
2023-05-22T13:11:25.890Z,13
2023-05-22T13:12:21.449Z,29
2023-05-22T13:13:21.189Z,30
2023-05-22T13:14:28.909Z,31
2023-05-22T13:15:25.980Z,47
2023-05-22T13:16:35.362Z,46
2023-05-22T13:17:26.943Z,46
2023-05-22T13:18:25.195Z,46
2023-05-22T13:19:22.265Z,47
2023-05-22T13:20:27.091Z,49
2023-05-22T13:21:27.744Z,41
2023-05-22T13:22:24.646Z,48
2023-05-22T13:23:20.925Z,48
2023-05-22T13:24:31.648Z,48
2023-05-22T13:25:21.996Z,48
2023-05-22T13:26:22.807Z,24
2023-05-22T13:27:33.873Z,46
2023-05-22T13:28:22.942Z,46
2023-05-22T13:29:25.629Z,30
2023-05-22T13:30:20.701Z,47
2023-05-22T13:31:34.847Z,41
2023-05-22T13:32:25.958Z,44
2023-05-22T13:33:22.302Z,47
2023-05-22T13:34:35.980Z,47
2023-05-22T13:35:27.446Z,46
2023-05-22T13:36:25.204Z,45
2023-05-22T13:37:19.326Z,46
2023-05-22T13:38:29.533Z,45
2023-05-22T13:39:27.431Z,44
2023-05-22T13:40:22.732Z,44
2023-05-22T13:41:31.702Z,45
2023-05-22T13:42:27.490Z,44
2023-05-22T13:43:24.134Z,44
2023-05-22T13:44:20.445Z,44
2023-05-22T13:45:30.540Z,44
2023-05-22T13:46:26.258Z,45
2023-05-22T13:47:21.799Z,45
2023-05-22T13:48:21.140Z,46
2023-05-22T13:49:29.238Z,46
2023-05-22T13:50:24.311Z,37
2023-05-22T13:51:21.171Z,42
2023-05-22T13:52:29.356Z,46
2023-05-22T13:53:27.113Z,45
2023-05-22T13:54:21.689Z,45
2023-05-22T13:55:23.939Z,45
2023-05-22T13:56:27.324Z,45
2023-05-22T13:57:23.675Z,46
2023-05-22T13:58:19.596Z,46
2023-05-22T13:59:30.794Z,37
2023-05-22T14:00:28.001Z,13
2023-05-22T14:01:21.658Z,12
2023-05-22T14:02:28.970Z,12
2023-05-22T14:03:21.089Z,12
2023-05-22T14:04:23.477Z,24
2023-05-22T14:05:19.521Z,45
2023-05-22T14:06:22.223Z,46
2023-05-22T14:07:25.547Z,45
2023-05-22T14:08:22.944Z,38
2023-05-22T14:09:31.843Z,30
2023-05-22T14:10:27.821Z,47
2023-05-22T14:11:24.316Z,40
2023-05-22T14:12:19.547Z,34
2023-05-22T14:13:29.232Z,36
2023-05-22T14:14:20.154Z,37
2023-05-22T14:15:21.692Z,33
2023-05-22T14:16:31.730Z,34
2023-05-22T14:17:28.892Z,35
2023-05-22T14:18:23.601Z,20
2023-05-22T14:19:19.510Z,14
2023-05-22T14:20:31.322Z,12
2023-05-22T14:21:25.290Z,12
2023-05-22T14:22:21.376Z,13
2023-05-22T14:23:34.286Z,24
2023-05-22T14:24:27.163Z,13
2023-05-22T14:25:26.037Z,12
2023-05-22T14:26:20.560Z,20
2023-05-22T14:27:31.655Z,40
2023-05-22T14:28:25.278Z,42
2023-05-22T14:29:23.013Z,42
2023-05-22T14:30:33.227Z,39
2023-05-22T14:31:27.846Z,23
2023-05-22T14:32:21.642Z,30
2023-05-22T14:33:19.381Z,34
2023-05-22T14:34:29.663Z,35
2023-05-22T14:35:25.765Z,36
2023-05-22T14:36:21.299Z,37
2023-05-22T14:37:31.583Z,39
2023-05-22T14:38:26.613Z,39
2023-05-22T14:39:23.297Z,40
2023-05-22T14:40:19.287Z,40
2023-05-22T14:41:21.195Z,39
2023-05-22T14:42:25.665Z,22
2023-05-22T14:43:22.101Z,13
2023-05-22T14:44:23.799Z,12
2023-05-22T14:45:27.597Z,12
2023-05-22T14:46:25.834Z,12
2023-05-22T14:47:19.567Z,11
2023-05-22T14:48:23.895Z,11
2023-05-22T14:49:21.990Z,10